Terminal Aerodrome Forecast
Issued by NWS

Home | Current Version | Previous Version | Text Only | Print | Product List | Glossary Off
Versions: 1 2 3 4 5 6 7 8 9 10 11 12 13 14 15 16 17 18 19 20

000
FTUS43 KICT 252138 AAA
TAFHUT
TAF AMD
KHUT 252138Z 2522/2618 17014G22KT P6SM VCTS SCT020 BKN040CB
      TEMPO 2522/2602 VRB20G40KT 2SM +TSRA OVC015CB
     FM260200 16007KT P6SM SCT015 BKN050
     FM260600 17010KT P6SM SCT009 BKN015=

USA.gov is the U.S. government's official web portal to all federal, state and local government web resources and services.